Time;durP1;ratioP1;P1;durP2;ratioP2;P2;SDS_P1;SDS_P2;PMS_P1;PMS_P2;Temp;Humidity;BMP_temperature;BMP_pressure;BME280_temperature;BME280_humidity;BME280_pressure;Samples;Min_cycle;Max_cycle;Signal;HPM_P1;HPM_P2
2023/09/15 00:00:47;;;;;;;0.10;0.10;;;13.60;99.90;;;;;;4980112;28;20655;-81
2023/09/15 00:03:06;;;;;;;0.10;0.10;;;13.70;99.90;;;;;;4977938;28;20249;-82
2023/09/15 00:05:33;;;;;;;0.10;0.10;;;13.70;99.90;;;;;;4980601;28;20687;-82
2023/09/15 00:08:00;;;;;;;0.10;0.10;;;13.70;99.90;;;;;;4981426;28;20178;-82
2023/09/15 00:10:28;;;;;;;0.10;0.10;;;13.70;99.90;;;;;;4981528;28;20183;-82
2023/09/15 00:12:54;;;;;;;0.10;0.10;;;13.60;99.90;;;;;;4979883;28;20295;-82
2023/09/15 00:15:19;;;;;;;0.10;0.10;;;13.60;99.90;;;;;;4980033;28;20210;-82
2023/09/15 00:17:45;;;;;;;0.10;0.10;;;13.60;99.90;;;;;;4980260;28;20182;-81
2023/09/15 00:20:14;;;;;;;0.10;0.10;;;13.60;99.90;;;;;;4978243;28;20190;-82
2023/09/15 00:22:50;;;;;;;0.10;0.10;;;13.60;99.90;;;;;;4979870;28;20194;-81
2023/09/15 00:25:21;;;;;;;0.10;0.10;;;13.60;99.90;;;;;;4977249;28;20680;-80
2023/09/15 00:27:48;;;;;;;0.10;0.10;;;13.60;99.90;;;;;;4978596;28;20194;-82
2023/09/15 00:30:15;;;;;;;0.10;0.10;;;13.40;99.90;;;;;;4978891;28;20194;-81
2023/09/15 00:32:40;;;;;;;0.00;0.00;;;13.50;99.90;;;;;;4985781;28;20225;-82
2023/09/15 00:35:06;;;;;;;0.10;0.10;;;13.50;99.90;;;;;;4980097;28;20201;-82
2023/09/15 00:37:31;;;;;;;0.10;0.10;;;13.30;99.90;;;;;;4980936;28;20188;-81
2023/09/15 00:39:57;;;;;;;0.03;0.03;;;13.30;99.90;;;;;;4985093;28;20185;-82
2023/09/15 00:42:24;;;;;;;0.10;0.10;;;13.30;99.90;;;;;;4985164;28;20190;-82
2023/09/15 00:44:51;;;;;;;0.10;0.10;;;13.30;99.90;;;;;;4985993;28;20205;-81
2023/09/15 00:47:17;;;;;;;0.10;0.10;;;13.40;99.90;;;;;;4978511;28;20839;-81
2023/09/15 00:49:44;;;;;;;0.00;0.00;;;13.40;99.90;;;;;;4985570;28;20178;-82
2023/09/15 00:52:10;;;;;;;0.10;0.10;;;13.50;99.90;;;;;;4980157;28;20210;-81
2023/09/15 00:54:36;;;;;;;0.10;0.10;;;13.40;99.90;;;;;;4979843;28;20218;-81
2023/09/15 00:57:02;;;;;;;0.00;0.00;;;13.40;99.90;;;;;;4980261;28;20194;-81
2023/09/15 00:59:29;;;;;;;0.03;0.03;;;13.40;99.90;;;;;;4984981;28;20189;-82
2023/09/15 01:01:55;;;;;;;0.10;0.10;;;13.40;99.90;;;;;;4979233;28;20657;-82
2023/09/15 01:04:21;;;;;;;0.10;0.10;;;13.30;99.90;;;;;;4979180;28;20211;-81
2023/09/15 01:06:49;;;;;;;0.10;0.10;;;13.30;99.90;;;;;;4977426;28;20201;-82
2023/09/15 01:09:15;;;;;;;0.10;0.10;;;13.30;99.90;;;;;;4985653;28;20265;-82
2023/09/15 01:11:41;;;;;;;0.10;0.10;;;13.20;99.90;;;;;;4986736;28;20199;-81
2023/09/15 01:14:07;;;;;;;0.20;0.20;;;13.10;99.90;;;;;;4985750;28;20185;-81
2023/09/15 01:16:42;;;;;;;0.10;0.10;;;13.10;99.90;;;;;;4979862;28;20237;-83
2023/09/15 01:19:26;;;;;;;0.10;0.10;;;13.20;99.90;;;;;;4979169;28;20190;-82
2023/09/15 01:22:23;;;;;;;0.10;0.10;;;13.10;99.90;;;;;;4979323;28;20186;-82
2023/09/15 01:25:09;;;;;;;0.10;0.10;;;13.00;99.90;;;;;;4980270;28;21023;-81
2023/09/15 01:28:10;;;;;;;0.10;0.10;;;12.90;99.90;;;;;;4981695;28;20178;-82
2023/09/15 01:30:37;;;;;;;0.00;0.00;;;13.00;99.90;;;;;;4989643;28;20593;-81
2023/09/15 01:33:05;;;;;;;0.10;0.10;;;12.90;99.90;;;;;;4983232;28;20205;-81
2023/09/15 01:35:32;;;;;;;0.03;0.03;;;12.90;99.90;;;;;;4989460;28;20200;-82
2023/09/15 01:37:59;;;;;;;0.10;0.10;;;12.90;99.90;;;;;;4984032;28;20182;-82
2023/09/15 01:40:25;;;;;;;0.10;0.10;;;12.70;99.90;;;;;;4990175;28;20191;-82
2023/09/15 01:42:54;;;;;;;0.00;0.00;;;12.60;99.90;;;;;;4981369;28;20785;-82
2023/09/15 01:45:19;;;;;;;0.10;0.10;;;12.50;99.90;;;;;;4988646;28;20212;-82
2023/09/15 01:47:46;;;;;;;0.10;0.10;;;12.70;99.90;;;;;;4983734;28;20704;-81
2023/09/15 01:50:13;;;;;;;0.10;0.10;;;12.70;99.90;;;;;;4997101;28;20184;-81
2023/09/15 01:52:39;;;;;;;0.10;0.10;;;12.80;99.90;;;;;;4982452;28;20673;-81
2023/09/15 01:55:06;;;;;;;0.07;0.07;;;12.90;99.90;;;;;;4981545;28;20254;-82
2023/09/15 01:57:32;;;;;;;0.10;0.10;;;12.80;99.90;;;;;;4980644;28;20190;-82
2023/09/15 01:59:58;;;;;;;0.00;0.00;;;12.70;99.90;;;;;;4980515;28;20200;-82
2023/09/15 02:02:24;;;;;;;0.10;0.10;;;12.70;99.90;;;;;;4981587;28;20182;-81
2023/09/15 02:04:49;;;;;;;0.10;0.10;;;12.60;99.90;;;;;;4982694;28;20695;-82
2023/09/15 02:07:15;;;;;;;0.10;0.10;;;12.60;99.90;;;;;;4982289;28;20180;-82
2023/09/15 02:09:40;;;;;;;0.10;0.10;;;12.70;99.90;;;;;;4983323;28;20214;-82
2023/09/15 02:12:06;;;;;;;0.10;0.10;;;12.70;99.90;;;;;;4982331;28;20209;-82
2023/09/15 02:14:32;;;;;;;0.07;0.07;;;12.80;99.90;;;;;;4988425;28;20200;-81
2023/09/15 02:16:57;;;;;;;0.10;0.10;;;12.80;99.90;;;;;;4982142;28;20184;-81
2023/09/15 02:19:24;;;;;;;0.10;0.10;;;12.90;99.90;;;;;;4982897;28;20203;-83
2023/09/15 02:21:49;;;;;;;0.00;0.00;;;12.90;99.90;;;;;;4982298;28;20187;-82
2023/09/15 02:24:16;;;;;;;0.07;0.07;;;12.90;99.90;;;;;;4988003;28;20196;-82
2023/09/15 02:26:41;;;;;;;0.10;0.10;;;12.90;99.90;;;;;;4981534;28;20186;-83
2023/09/15 02:29:07;;;;;;;0.10;0.10;;;13.00;99.90;;;;;;4988507;28;20201;-82
2023/09/15 02:31:32;;;;;;;0.10;0.10;;;12.90;99.90;;;;;;4982134;28;20214;-82
2023/09/15 02:33:59;;;;;;;0.10;0.10;;;12.90;99.90;;;;;;4988375;28;20187;-83
2023/09/15 02:36:26;;;;;;;0.10;0.10;;;12.80;99.90;;;;;;4981815;28;20223;-82
2023/09/15 02:38:54;;;;;;;0.10;0.10;;;12.70;99.90;;;;;;4980711;28;20179;-82
2023/09/15 02:41:20;;;;;;;0.10;0.10;;;12.70;99.90;;;;;;4982427;28;20552;-82
2023/09/15 02:43:46;;;;;;;0.10;0.10;;;12.50;99.90;;;;;;4980629;28;20186;-82
2023/09/15 02:46:12;;;;;;;0.00;0.00;;;12.40;99.90;;;;;;4980297;28;20210;-82
2023/09/15 02:48:37;;;;;;;0.10;0.10;;;12.40;99.90;;;;;;4988359;28;20535;-82
2023/09/15 02:51:04;;;;;;;0.10;0.10;;;12.40;99.90;;;;;;4979601;28;20204;-82
2023/09/15 02:53:30;;;;;;;0.10;0.10;;;12.50;99.90;;;;;;4982543;28;20173;-82
2023/09/15 02:56:00;;;;;;;0.10;0.10;;;12.60;99.90;;;;;;4980448;28;20828;-82
2023/09/15 02:58:27;;;;;;;0.10;0.10;;;12.60;99.90;;;;;;4987643;28;20189;-82
2023/09/15 03:00:53;;;;;;;0.10;0.10;;;12.70;99.90;;;;;;4979493;28;20178;-80
2023/09/15 03:03:19;;;;;;;0.10;0.10;;;12.80;99.90;;;;;;4985774;28;20212;-82
2023/09/15 03:05:45;;;;;;;0.10;0.10;;;12.70;99.90;;;;;;4986587;28;20696;-81
2023/09/15 03:08:11;;;;;;;0.10;0.10;;;12.50;99.90;;;;;;4972087;28;20275;-81
2023/09/15 03:10:37;;;;;;;0.10;0.10;;;12.60;99.90;;;;;;4980562;28;20186;-81
2023/09/15 03:13:04;;;;;;;0.07;0.07;;;12.50;99.90;;;;;;4983706;28;20213;-80
2023/09/15 03:15:30;;;;;;;0.00;0.00;;;12.60;99.90;;;;;;4999265;28;20209;-81
2023/09/15 03:17:55;;;;;;;0.10;0.10;;;12.50;99.90;;;;;;4980448;28;20297;-81
2023/09/15 03:20:21;;;;;;;0.10;0.10;;;12.30;99.90;;;;;;4983410;28;20180;-82
2023/09/15 03:22:47;;;;;;;0.10;0.10;;;12.10;99.90;;;;;;4980445;28;20184;-80
2023/09/15 03:25:14;;;;;;;0.10;0.10;;;12.10;99.90;;;;;;4981918;28;20212;-80
2023/09/15 03:27:40;;;;;;;0.10;0.10;;;12.20;99.90;;;;;;4989320;28;20212;-82
2023/09/15 03:30:06;;;;;;;0.10;0.10;;;12.20;99.90;;;;;;4983828;28;20196;-81
2023/09/15 03:32:32;;;;;;;0.10;0.10;;;12.30;99.90;;;;;;4982323;28;20684;-82
2023/09/15 03:34:58;;;;;;;0.10;0.10;;;12.30;99.90;;;;;;4982414;28;20209;-81
2023/09/15 03:37:26;;;;;;;0.10;0.10;;;12.40;99.90;;;;;;4990971;28;20189;-82
2023/09/15 03:39:52;;;;;;;0.10;0.10;;;12.50;99.90;;;;;;4981771;28;20275;-81
2023/09/15 03:42:17;;;;;;;0.10;0.10;;;12.50;99.90;;;;;;4977982;28;20285;-82
2023/09/15 03:44:43;;;;;;;0.10;0.10;;;12.60;99.90;;;;;;4978451;28;20223;-82
2023/09/15 03:47:09;;;;;;;0.10;0.10;;;12.60;99.90;;;;;;4984549;28;20206;-82
2023/09/15 03:49:35;;;;;;;0.00;0.00;;;12.60;99.90;;;;;;4985316;28;20219;-81
2023/09/15 03:52:01;;;;;;;0.10;0.10;;;12.60;99.90;;;;;;4986180;28;20204;-81
2023/09/15 03:54:26;;;;;;;0.10;0.10;;;12.60;99.90;;;;;;4985676;28;20202;-81
2023/09/15 03:56:53;;;;;;;0.10;0.10;;;12.60;99.90;;;;;;4988804;28;20585;-80
2023/09/15 03:59:20;;;;;;;0.10;0.10;;;12.70;99.90;;;;;;4978332;28;20179;-82
2023/09/15 04:01:47;;;;;;;0.03;0.03;;;12.70;99.90;;;;;;4979160;28;20193;-82
2023/09/15 04:04:13;;;;;;;0.00;0.00;;;12.70;99.90;;;;;;4994769;28;20269;-83
2023/09/15 04:06:38;;;;;;;0.10;0.10;;;12.50;99.90;;;;;;4978509;28;20289;-81
2023/09/15 04:09:10;;;;;;;0.10;0.10;;;12.50;99.90;;;;;;4983471;28;20606;-82
2023/09/15 04:11:36;;;;;;;0.10;0.10;;;12.40;99.90;;;;;;4974478;28;20231;-81
2023/09/15 04:14:03;;;;;;;0.07;0.07;;;12.40;99.90;;;;;;4984059;28;20216;-82
2023/09/15 04:16:29;;;;;;;0.00;0.00;;;12.30;99.90;;;;;;4974492;28;20211;-81
2023/09/15 04:18:54;;;;;;;0.10;0.10;;;12.30;99.90;;;;;;4982117;28;20189;-82
2023/09/15 04:21:20;;;;;;;0.10;0.10;;;12.30;99.90;;;;;;4982647;28;20206;-81
2023/09/15 04:23:45;;;;;;;0.10;0.10;;;12.30;99.90;;;;;;4997263;28;20259;-82
2023/09/15 04:26:11;;;;;;;0.10;0.10;;;12.30;99.90;;;;;;4981860;28;20265;-81
2023/09/15 04:28:37;;;;;;;0.10;0.10;;;12.20;99.90;;;;;;4986238;28;20200;-81
2023/09/15 04:31:03;;;;;;;0.10;0.10;;;12.10;99.90;;;;;;4985639;28;20587;-83
2023/09/15 04:33:28;;;;;;;0.10;0.10;;;12.20;99.90;;;;;;4983202;28;20230;-83
2023/09/15 04:35:54;;;;;;;0.03;0.03;;;12.20;99.90;;;;;;4975270;28;20204;-82
2023/09/15 04:38:19;;;;;;;0.10;0.10;;;12.30;99.90;;;;;;4992594;28;20203;-82
2023/09/15 04:40:45;;;;;;;0.00;0.00;;;12.40;99.90;;;;;;4988361;28;20180;-81
2023/09/15 04:43:12;;;;;;;0.10;0.10;;;12.40;99.90;;;;;;4979278;28;20206;-82
2023/09/15 04:45:38;;;;;;;0.10;0.10;;;12.50;99.90;;;;;;4976496;28;20258;-81
2023/09/15 04:48:04;;;;;;;0.10;0.10;;;12.50;99.90;;;;;;4977109;28;20865;-81
2023/09/15 04:50:30;;;;;;;0.10;0.10;;;12.40;99.90;;;;;;4984875;28;20184;-83
2023/09/15 04:52:55;;;;;;;0.10;0.10;;;12.30;99.90;;;;;;4979054;28;20218;-81
2023/09/15 04:55:22;;;;;;;0.10;0.10;;;12.20;99.90;;;;;;4979992;28;20209;-81
2023/09/15 04:57:47;;;;;;;0.10;0.10;;;12.00;99.90;;;;;;4989890;28;20687;-80
2023/09/15 05:00:17;;;;;;;0.10;0.10;;;12.10;99.90;;;;;;4984773;28;20184;-80
2023/09/15 05:02:45;;;;;;;0.10;0.10;;;12.10;99.90;;;;;;4989691;28;20595;-81
2023/09/15 05:05:10;;;;;;;0.10;0.10;;;12.20;99.90;;;;;;4989306;28;20291;-80
2023/09/15 05:07:36;;;;;;;0.10;0.10;;;12.20;99.90;;;;;;4987405;28;20212;-81
2023/09/15 05:10:01;;;;;;;0.10;0.10;;;12.10;99.90;;;;;;4984903;28;20203;-81
2023/09/15 05:12:27;;;;;;;0.10;0.10;;;12.10;99.90;;;;;;4991048;28;20266;-80
2023/09/15 05:14:52;;;;;;;0.10;0.10;;;12.10;99.90;;;;;;4980718;28;20211;-79
2023/09/15 05:17:18;;;;;;;0.10;0.10;;;12.20;99.90;;;;;;4985384;28;20199;-80
2023/09/15 05:19:43;;;;;;;0.07;0.07;;;12.30;99.90;;;;;;4992777;28;20711;-78
2023/09/15 05:22:09;;;;;;;0.10;0.10;;;12.30;99.90;;;;;;4981979;28;20184;-79
2023/09/15 05:24:34;;;;;;;0.10;0.10;;;12.40;99.90;;;;;;4984564;28;20220;-83
2023/09/15 05:27:00;;;;;;;0.10;0.10;;;12.50;99.90;;;;;;4980686;28;20197;-82
2023/09/15 05:29:25;;;;;;;0.10;0.10;;;12.50;99.90;;;;;;4980562;28;20201;-82
2023/09/15 05:31:51;;;;;;;0.10;0.10;;;12.40;99.90;;;;;;4981369;28;20294;-83
2023/09/15 05:34:16;;;;;;;0.00;0.00;;;12.60;99.90;;;;;;4988706;28;20192;-82
2023/09/15 05:36:42;;;;;;;0.10;0.10;;;12.60;99.90;;;;;;4981874;28;20265;-83
2023/09/15 05:39:08;;;;;;;0.00;0.00;;;12.70;99.90;;;;;;4981232;28;20188;-82
2023/09/15 05:41:34;;;;;;;0.10;0.10;;;12.90;99.90;;;;;;4982987;28;20686;-83
2023/09/15 05:43:59;;;;;;;0.10;0.10;;;13.00;99.90;;;;;;4980863;28;20195;-83
2023/09/15 05:46:25;;;;;;;0.10;0.10;;;13.10;99.90;;;;;;4981684;28;20207;-83
2023/09/15 05:48:50;;;;;;;0.10;0.10;;;13.20;99.90;;;;;;4988887;28;20199;-83
2023/09/15 05:51:16;;;;;;;0.10;0.10;;;13.30;99.90;;;;;;4981569;28;20217;-82
2023/09/15 05:53:41;;;;;;;0.03;0.03;;;13.40;99.90;;;;;;4982878;28;20200;-83
2023/09/15 05:56:07;;;;;;;0.10;0.10;;;13.50;99.90;;;;;;4987036;28;20217;-82
2023/09/15 05:58:32;;;;;;;0.10;0.10;;;13.70;99.90;;;;;;4983431;28;20187;-82
2023/09/15 06:00:58;;;;;;;0.10;0.10;;;13.70;99.90;;;;;;4983466;28;20192;-82
2023/09/15 06:03:24;;;;;;;0.10;0.10;;;13.80;99.90;;;;;;4981847;28;20193;-83
2023/09/15 06:05:50;;;;;;;0.10;0.10;;;13.90;99.90;;;;;;4989239;28;20258;-82
2023/09/15 06:08:19;;;;;;;0.10;0.10;;;13.90;99.90;;;;;;4982354;28;20711;-82
2023/09/15 06:10:46;;;;;;;0.10;0.10;;;14.00;99.90;;;;;;4984124;28;20245;-80
2023/09/15 06:13:12;;;;;;;0.10;0.10;;;14.00;99.90;;;;;;4981135;28;20230;-81
2023/09/15 06:15:38;;;;;;;0.10;0.10;;;14.10;99.90;;;;;;4982546;28;21230;-82
2023/09/15 06:18:03;;;;;;;0.10;0.10;;;14.20;99.90;;;;;;4988026;28;20224;-81
2023/09/15 06:20:33;;;;;;;0.10;0.10;;;14.20;99.90;;;;;;4993741;28;20279;-81
2023/09/15 06:22:59;;;;;;;0.10;0.10;;;14.30;99.90;;;;;;4982676;28;20659;-81
2023/09/15 06:25:24;;;;;;;0.10;0.10;;;14.30;99.90;;;;;;4988587;28;20219;-80
2023/09/15 06:27:50;;;;;;;0.10;0.10;;;14.40;99.90;;;;;;4988024;28;20557;-82
2023/09/15 06:30:16;;;;;;;0.10;0.10;;;14.50;99.90;;;;;;4977727;28;20281;-82
2023/09/15 06:32:41;;;;;;;0.10;0.10;;;14.60;99.90;;;;;;4978983;28;21212;-83
2023/09/15 06:35:12;;;;;;;0.10;0.10;;;14.70;99.90;;;;;;4980645;28;20248;-81
2023/09/15 06:37:41;;;;;;;0.10;0.10;;;14.80;99.90;;;;;;4982961;28;20254;-82
2023/09/15 06:40:07;;;;;;;0.07;0.07;;;14.90;99.90;;;;;;4981135;28;20193;-82
2023/09/15 06:42:33;;;;;;;0.10;0.10;;;15.10;99.90;;;;;;4981271;28;20199;-82
2023/09/15 06:44:58;;;;;;;0.10;0.10;;;15.20;99.90;;;;;;4980791;28;20870;-83
2023/09/15 06:47:23;;;;;;;0.10;0.10;;;15.40;99.90;;;;;;4978715;28;20283;-83
2023/09/15 06:49:49;;;;;;;0.10;0.10;;;15.50;99.90;;;;;;4985116;28;20183;-81
2023/09/15 06:52:15;;;;;;;0.10;0.10;;;15.70;99.90;;;;;;4977900;28;20219;-81
2023/09/15 06:54:40;;;;;;;0.10;0.10;;;15.80;99.90;;;;;;4978568;28;20211;-82
2023/09/15 06:57:06;;;;;;;0.10;0.10;;;16.00;99.90;;;;;;4982298;28;20553;-81
2023/09/15 06:59:31;;;;;;;0.10;0.10;;;16.20;99.90;;;;;;4979766;28;20306;-83
2023/09/15 07:01:59;;;;;;;0.10;0.10;;;16.30;99.90;;;;;;4979271;28;20540;-81
2023/09/15 07:04:27;;;;;;;0.10;0.10;;;16.10;99.90;;;;;;4977972;28;20214;-82
2023/09/15 07:06:54;;;;;;;0.10;0.10;;;16.10;99.90;;;;;;4977775;28;20682;-82
2023/09/15 07:09:19;;;;;;;0.10;0.10;;;16.30;99.90;;;;;;4986217;28;20678;-82
2023/09/15 07:11:45;;;;;;;0.10;0.10;;;16.70;99.90;;;;;;4986085;28;20254;-82
2023/09/15 07:14:10;;;;;;;0.10;0.10;;;16.80;99.90;;;;;;4987363;28;20270;-82
2023/09/15 07:16:36;;;;;;;0.10;0.10;;;16.80;99.90;;;;;;4989987;28;20190;-81
2023/09/15 07:19:02;;;;;;;0.10;0.10;;;17.20;99.90;;;;;;4981649;28;20180;-82
2023/09/15 07:21:27;;;;;;;0.10;0.10;;;17.30;99.90;;;;;;5002124;28;20202;-81
2023/09/15 07:23:54;;;;;;;0.10;0.10;;;17.30;99.90;;;;;;4982418;28;20310;-82
2023/09/15 07:26:21;;;;;;;0.10;0.10;;;17.60;99.90;;;;;;4981632;28;20200;-82
2023/09/15 07:28:47;;;;;;;0.10;0.10;;;17.50;99.90;;;;;;4981097;28;20192;-82
2023/09/15 07:31:15;;;;;;;0.10;0.10;;;17.50;99.90;;;;;;4979183;28;20676;-82
2023/09/15 07:33:41;;;;;;;0.10;0.10;;;17.70;99.90;;;;;;4987183;28;20648;-82
2023/09/15 07:36:06;;;;;;;0.10;0.10;;;18.00;99.90;;;;;;4979951;28;20201;-82
2023/09/15 07:38:32;;;;;;;0.10;0.10;;;18.10;99.90;;;;;;4992009;28;20202;-81
2023/09/15 07:40:58;;;;;;;0.10;0.10;;;18.10;99.90;;;;;;4980116;28;20208;-83
2023/09/15 07:43:24;;;;;;;0.10;0.10;;;18.00;99.90;;;;;;4986520;28;20196;-83
2023/09/15 07:45:50;;;;;;;0.10;0.10;;;17.80;99.90;;;;;;4979807;28;20242;-82
2023/09/15 07:48:17;;;;;;;0.10;0.10;;;17.80;99.90;;;;;;4981189;28;20267;-83
2023/09/15 07:50:42;;;;;;;0.10;0.10;;;18.30;99.90;;;;;;4980360;28;20211;-82
2023/09/15 07:53:08;;;;;;;0.10;0.10;;;18.20;99.90;;;;;;4978896;28;20247;-82
2023/09/15 07:55:33;;;;;;;0.10;0.10;;;18.40;99.90;;;;;;4985929;28;20255;-83
2023/09/15 07:57:59;;;;;;;0.10;0.10;;;18.00;99.90;;;;;;4980751;28;20191;-82
2023/09/15 08:00:24;;;;;;;0.10;0.10;;;18.10;99.90;;;;;;4978269;28;20172;-82
2023/09/15 08:02:50;;;;;;;0.10;0.10;;;18.50;99.90;;;;;;4979128;28;20706;-82
2023/09/15 08:05:16;;;;;;;0.10;0.10;;;18.80;99.90;;;;;;4987040;28;20280;-83
2023/09/15 08:07:45;;;;;;;0.10;0.10;;;18.60;99.90;;;;;;4986712;28;20190;-83
2023/09/15 08:10:12;;;;;;;0.10;0.10;;;18.60;99.90;;;;;;4978562;28;20192;-82
2023/09/15 08:12:38;;;;;;;0.10;0.10;;;19.00;99.90;;;;;;4980078;28;20199;-81
2023/09/15 08:15:05;;;;;;;0.10;0.10;;;19.20;99.90;;;;;;4982196;28;20566;-82
2023/09/15 08:17:31;;;;;;;0.10;0.10;;;19.50;99.90;;;;;;4994223;28;20684;-80
2023/09/15 08:19:57;;;;;;;0.10;0.10;;;19.80;99.90;;;;;;4986641;28;20195;-80
2023/09/15 08:22:26;;;;;;;0.10;0.10;;;19.80;99.90;;;;;;4978537;28;20214;-80
2023/09/15 08:24:53;;;;;;;0.10;0.10;;;19.90;99.90;;;;;;4976746;28;20847;-80
2023/09/15 08:27:19;;;;;;;0.10;0.10;;;19.60;99.90;;;;;;4977513;28;20230;-81
2023/09/15 08:29:44;;;;;;;0.10;0.10;;;19.10;99.90;;;;;;4980026;28;20220;-81
2023/09/15 08:32:10;;;;;;;0.10;0.10;;;19.30;99.90;;;;;;4981991;28;20222;-81
2023/09/15 08:34:36;;;;;;;0.10;0.10;;;19.70;99.90;;;;;;4978686;28;20250;-80
2023/09/15 08:37:02;;;;;;;0.10;0.10;;;20.20;99.90;;;;;;4996307;28;20200;-81
2023/09/15 08:39:28;;;;;;;0.10;0.10;;;19.80;99.90;;;;;;4981049;28;20184;-79
2023/09/15 08:42:01;;;;;;;0.10;0.10;;;19.80;99.90;;;;;;4978767;28;20215;-80
2023/09/15 08:44:28;;;;;;;0.10;0.10;;;20.10;99.90;;;;;;4978509;28;20207;-79
2023/09/15 08:46:56;;;;;;;0.10;0.10;;;20.20;99.90;;;;;;4979850;28;20203;-80
2023/09/15 08:49:23;;;;;;;0.10;0.10;;;19.60;99.90;;;;;;4978594;28;20238;-79
2023/09/15 08:51:50;;;;;;;0.10;0.10;;;19.40;99.90;;;;;;4978369;28;20298;-80
2023/09/15 08:54:16;;;;;;;0.10;0.10;;;19.50;99.90;;;;;;4980384;28;22506;-81
2023/09/15 08:56:44;;;;;;;0.10;0.10;;;20.10;99.90;;;;;;4981847;28;20184;-81
2023/09/15 08:59:10;;;;;;;0.10;0.10;;;20.40;99.90;;;;;;4979455;28;20291;-79
2023/09/15 09:01:35;;;;;;;0.10;0.10;;;20.40;99.90;;;;;;4979092;28;20271;-79
2023/09/15 09:04:01;;;;;;;0.10;0.10;;;20.80;99.90;;;;;;4978387;28;20259;-80
2023/09/15 09:06:27;;;;;;;0.10;0.10;;;21.10;99.90;;;;;;4986451;28;21179;-79
2023/09/15 09:08:54;;;;;;;0.10;0.10;;;21.40;99.90;;;;;;4981389;28;20207;-81
2023/09/15 09:11:20;;;;;;;0.10;0.10;;;21.60;99.90;;;;;;4979316;28;20294;-80
2023/09/15 09:13:52;;;;;;;0.10;0.10;;;20.70;99.90;;;;;;4976054;28;20184;-78
2023/09/15 09:16:19;;;;;;;0.10;0.10;;;20.90;99.90;;;;;;4976041;28;20250;-80
2023/09/15 09:18:59;;;;;;;0.10;0.10;;;20.90;99.90;;;;;;4975642;28;20660;-82
2023/09/15 09:21:30;;;;;;;0.10;0.10;;;20.90;99.90;;;;;;4986427;28;20605;-81
2023/09/15 09:23:56;;;;;;;0.10;0.10;;;20.90;99.90;;;;;;4979421;28;20747;-82
2023/09/15 09:26:22;;;;;;;0.10;0.10;;;20.80;99.90;;;;;;4985977;28;20219;-81
2023/09/15 09:28:48;;;;;;;0.10;0.10;;;21.00;99.90;;;;;;4985253;28;20205;-82
2023/09/15 09:31:15;;;;;;;0.10;0.10;;;21.50;99.90;;;;;;4994875;28;20192;-83
2023/09/15 09:33:42;;;;;;;0.10;0.10;;;21.30;99.90;;;;;;4993959;28;20263;-82
2023/09/15 09:36:15;;;;;;;0.10;0.10;;;20.70;99.90;;;;;;4978247;28;20212;-82
2023/09/15 09:38:46;;;;;;;0.10;0.10;;;21.10;99.90;;;;;;4982433;28;20728;-81
2023/09/15 09:41:12;;;;;;;0.10;0.10;;;21.50;99.90;;;;;;4986088;28;20184;-81
2023/09/15 09:43:39;;;;;;;0.10;0.10;;;21.60;99.90;;;;;;4980370;28;20531;-83
2023/09/15 09:46:06;;;;;;;0.10;0.10;;;21.60;99.90;;;;;;4981227;28;20270;-82
2023/09/15 09:48:36;;;;;;;0.10;0.10;;;21.80;99.90;;;;;;4984094;28;20199;-82
2023/09/15 09:51:03;;;;;;;0.10;0.10;;;22.10;99.90;;;;;;4985192;28;22390;-82
2023/09/15 09:53:32;;;;;;;0.10;0.10;;;22.10;99.90;;;;;;4985258;28;20187;-81
2023/09/15 09:55:58;;;;;;;0.10;0.10;;;22.20;99.90;;;;;;4989369;28;20271;-81
2023/09/15 09:58:24;;;;;;;0.10;0.10;;;21.80;99.90;;;;;;4987794;28;20184;-83
2023/09/15 10:00:50;;;;;;;0.10;0.10;;;21.80;99.90;;;;;;4984688;28;20187;-81
2023/09/15 10:03:22;;;;;;;0.10;0.10;;;21.90;99.90;;;;;;5003200;28;20271;-81
2023/09/15 10:05:48;;;;;;;0.10;0.10;;;22.30;99.90;;;;;;4982948;28;20586;-83
2023/09/15 10:08:15;;;;;;;0.10;0.10;;;22.80;99.90;;;;;;4989954;28;20251;-81
2023/09/15 10:10:44;;;;;;;0.10;0.10;;;23.00;99.90;;;;;;4989361;28;20537;-82
2023/09/15 10:13:11;;;;;;;0.10;0.10;;;23.20;99.90;;;;;;4987132;28;20665;-82
2023/09/15 10:15:39;;;;;;;0.10;0.10;;;23.30;99.90;;;;;;4979836;28;20286;-82
2023/09/15 10:18:06;;;;;;;0.10;0.10;;;23.30;99.90;;;;;;4983810;28;20195;-80
2023/09/15 10:20:33;;;;;;;0.10;0.10;;;23.60;99.90;;;;;;4985709;28;20196;-82
2023/09/15 10:22:59;;;;;;;0.10;0.10;;;23.60;99.90;;;;;;4987219;28;20238;-81
2023/09/15 10:25:25;;;;;;;0.10;0.10;;;23.60;99.90;;;;;;4984952;28;20220;-81
2023/09/15 10:27:50;;;;;;;0.10;0.10;;;22.60;99.90;;;;;;4992891;28;20529;-81
2023/09/15 10:30:16;;;;;;;0.10;0.10;;;22.80;99.90;;;;;;4988355;28;20192;-80
2023/09/15 10:32:43;;;;;;;0.10;0.10;;;22.90;99.90;;;;;;4988359;28;20215;-80
2023/09/15 10:35:10;;;;;;;0.10;0.10;;;23.40;99.90;;;;;;4986869;28;20254;-80
2023/09/15 10:37:41;;;;;;;0.10;0.10;;;23.70;99.90;;;;;;4988576;28;20187;-80
2023/09/15 10:40:07;;;;;;;0.10;0.10;;;23.80;99.90;;;;;;4989154;28;20224;-81
2023/09/15 10:42:34;;;;;;;0.10;0.10;;;23.90;99.90;;;;;;4989933;28;20235;-81
2023/09/15 10:45:10;;;;;;;0.10;0.10;;;23.90;99.90;;;;;;4988755;28;20227;-81
2023/09/15 10:47:36;;;;;;;0.10;0.10;;;24.20;99.90;;;;;;4987466;28;20615;-81
2023/09/15 10:50:04;;;;;;;0.10;0.10;;;24.00;99.90;;;;;;4987483;28;20276;-81
2023/09/15 10:52:37;;;;;;;0.10;0.10;;;24.10;99.90;;;;;;4982103;28;21006;-81
2023/09/15 10:55:03;;;;;;;0.10;0.10;;;24.20;99.90;;;;;;4980763;28;20209;-81
2023/09/15 10:57:32;;;;;;;0.10;0.10;;;24.30;99.90;;;;;;4979239;28;20187;-81
2023/09/15 10:59:59;;;;;;;0.10;0.10;;;23.40;99.90;;;;;;4979349;28;20282;-80
2023/09/15 11:02:26;;;;;;;0.10;0.10;;;23.20;99.90;;;;;;4996657;28;20191;-81
2023/09/15 11:04:51;;;;;;;0.10;0.10;;;23.40;99.90;;;;;;4979633;28;21392;-80
2023/09/15 11:07:19;;;;;;;0.10;0.10;;;22.90;99.90;;;;;;4981347;28;20184;-81
2023/09/15 11:09:45;;;;;;;0.10;0.10;;;23.30;99.90;;;;;;4979610;28;20302;-80
2023/09/15 11:12:13;;;;;;;0.10;0.10;;;23.50;99.90;;;;;;4980264;28;20355;-79
2023/09/15 11:14:39;;;;;;;0.10;0.10;;;24.00;99.90;;;;;;4979999;28;20287;-79
2023/09/15 11:17:05;;;;;;;0.10;0.10;;;24.30;99.90;;;;;;4978575;28;20307;-81
2023/09/15 11:19:33;;;;;;;0.10;0.10;;;24.40;99.90;;;;;;4978240;28;20191;-79
2023/09/15 11:22:04;;;;;;;0.10;0.10;;;23.60;99.90;;;;;;4978725;28;20264;-80
2023/09/15 11:24:32;;;;;;;0.10;0.10;;;24.00;99.90;;;;;;4980675;28;20263;-79
2023/09/15 11:27:00;;;;;;;0.10;0.10;;;24.40;99.90;;;;;;4987047;28;20294;-80
2023/09/15 11:29:30;;;;;;;0.10;0.10;;;23.90;99.90;;;;;;4980609;28;20182;-79
2023/09/15 11:31:58;;;;;;;0.10;0.10;;;23.90;99.90;;;;;;4978982;28;20219;-79
2023/09/15 11:34:24;;;;;;;0.10;0.10;;;24.40;99.90;;;;;;4980121;28;20211;-80
2023/09/15 11:36:56;;;;;;;0.10;0.10;;;24.90;99.90;;;;;;4979926;28;20175;-80
2023/09/15 11:39:23;;;;;;;0.10;0.10;;;24.90;99.90;;;;;;4982440;28;20656;-81
2023/09/15 11:41:54;;;;;;;0.10;0.10;;;25.00;99.90;;;;;;4986603;28;20192;-81
2023/09/15 11:44:25;;;;;;;0.10;0.10;;;25.20;99.90;;;;;;4981249;28;20192;-83
2023/09/15 11:46:52;;;;;;;0.10;0.10;;;25.30;99.90;;;;;;4977445;28;20196;-82
2023/09/15 11:49:19;;;;;;;0.10;0.10;;;24.60;99.90;;;;;;4978297;28;20184;-82
2023/09/15 11:51:46;;;;;;;0.10;0.10;;;24.80;99.90;;;;;;4979893;28;20579;-82
2023/09/15 11:54:12;;;;;;;0.10;0.10;;;24.90;99.90;;;;;;4979082;28;20184;-84
2023/09/15 11:56:38;;;;;;;0.10;0.10;;;24.90;99.90;;;;;;4978064;28;20562;-82
2023/09/15 11:59:06;;;;;;;0.10;0.10;;;25.30;99.90;;;;;;4978141;28;20242;-83
2023/09/15 12:01:32;;;;;;;0.10;0.10;;;25.00;99.90;;;;;;4979730;28;20245;-83
2023/09/15 12:03:58;;;;;;;0.10;0.10;;;25.30;99.90;;;;;;4986738;28;20680;-83
2023/09/15 12:06:24;;;;;;;0.10;0.10;;;24.40;99.90;;;;;;4979040;28;20245;-83
2023/09/15 12:08:51;;;;;;;0.10;0.10;;;24.70;99.90;;;;;;4977780;28;20183;-83
2023/09/15 12:11:18;;;;;;;0.10;0.10;;;25.10;99.90;;;;;;4977907;28;20242;-82
2023/09/15 12:13:46;;;;;;;0.10;0.10;;;25.20;99.90;;;;;;4978177;28;20587;-82
2023/09/15 12:16:21;;;;;;;0.10;0.10;;;25.20;99.90;;;;;;4978887;28;20204;-83
2023/09/15 12:18:47;;;;;;;0.10;0.10;;;25.40;99.90;;;;;;4978532;28;20175;-83
2023/09/15 12:21:14;;;;;;;0.10;0.10;;;25.30;99.90;;;;;;4979353;28;20591;-83
2023/09/15 12:23:40;;;;;;;0.10;0.10;;;25.30;99.90;;;;;;4977628;28;20189;-82
2023/09/15 12:26:06;;;;;;;0.10;0.10;;;24.60;99.90;;;;;;4979929;28;20215;-83
2023/09/15 12:28:32;;;;;;;0.10;0.10;;;24.30;99.90;;;;;;4980844;28;21099;-83
2023/09/15 12:30:59;;;;;;;0.10;0.10;;;24.90;99.90;;;;;;4976962;28;20184;-83
2023/09/15 12:33:26;;;;;;;0.10;0.10;;;25.30;99.90;;;;;;4979260;28;20584;-83
2023/09/15 12:35:52;;;;;;;0.10;0.10;;;25.80;99.90;;;;;;4978148;28;20207;-83
2023/09/15 12:38:18;;;;;;;0.10;0.10;;;25.50;99.90;;;;;;4986938;28;20180;-82
2023/09/15 12:40:45;;;;;;;0.10;0.10;;;25.30;99.90;;;;;;4985808;28;20176;-83
2023/09/15 12:43:11;;;;;;;0.10;0.10;;;25.60;99.90;;;;;;4980098;28;20315;-83
2023/09/15 12:45:37;;;;;;;0.10;0.10;;;25.60;99.90;;;;;;4985904;28;20211;-83